Charlevoix, MI

12:36 PM EDT on August 31, 2015 (GMT -0400)
1.5 W Ironton | | Change Station
CLOSE
Current Station
Personal Weather Station
Location: Charlevoix, MI
Elevation: 750 ft
Nearby Weather Stations

Elev 750 ft 45.26 °N, 85.22 °W | Updated 8 seconds ago

Scattered Clouds
Scattered Clouds
73.9 °F
Feels Like 74 °F
N
1.0
Wind Variable Wind from West
Gusts 14.0 mph

Today
High -- | Low -- °F
--% Chance of Precip.
Yesterday
High -- | Low -- °F
Precip. -- in
7:01 AM 8:20 PM
Waning Gibbous, 95% visible
Pressure 30.06 in
Visibility 10.0 miles
Clouds Scattered Clouds 1400 ft
Heat Index 74 °F
Dew Point 68 °F
Humidity 82%
Rainfall in
Snow Depth Not available.
UV 6 out of 12
Pollen 10.90 out of 12
Air Quality Not available.
Flu Activity Not available.
METAR KCVX 311615Z AUTO 23010KT 10SM SCT014 24/19 A3006 RMK AO2 T02350191
Pressure 30.06 in
Visibility 10.0 miles
Clouds Scattered Clouds 1400 ft
Heat Index 74 °F
Dew Point 68 °F
Humidity 82%
Rainfall in
Snow Depth Not available.
UV 6 out of 12
Pollen 10.90 out of 12
Air Quality Not available.
Flu Activity Not available.
METAR KCVX 311615Z AUTO 23010KT 10SM SCT014 24/19 A3006 RMK AO2 T02350191
Nowcast | as of 12:00 PM EDT on August 31, 2015

At 1 PM...partly cloudy. Temperature 75. Southwest winds 10 mph. At 3 PM...mostly clear. Temperature 77. Southwest winds 10 mph. At 5 PM...mostly clear. Temperature 77. West winds 9 mph. At 7 PM...mostly clear. Temperature 77. Southwest winds 8 mph.

×

10-Day Weather Forecast

×

Almanac

Astronomy

Aug. 31, 2015 Rise Set
Actual Time
Civil Twilight
Nautical Twilight
Astronomical Twilight
Moon
Length of Visible Light
Length of Day
Tomorrow will be .
, % of the Moon is Illuminated

Today's Extremes

State Highs State Lows

Community

WunderPhotos

Upload Photos

1,851,302 photos uploaded!

WunderBlogs® & News

Nearby

Air Quality

  Air Quality AQ Index Pollutant
Not available.

Snow Depth

Station Depth Elevation

Earthquake Activity

City Distance Mag. Time & Date
Minimum magnitude displayed is 2.5.

Coastal Water Temperatures

Place Temperature

Stations

Nearby Weather Stations

Station Location Temp. Windchill Dew Point Humidity Wind Precip. Elev Updated Type